Aviation Digital Data Service (ADDS)

Output produced by METARs form (1156 UTC 27 March 2015)
found at http://www.aviationweather.gov/adds/metars/
 
KROW 271151Z 34004KT 10SM CLR 02/M02 A3019 RMK AO2 SLP196 T00221022 10061 20011 53002
KROW 271051Z AUTO 30003KT 10SM CLR 03/M03 A3017 RMK AO2 SLP191 T00281028
KROW 270951Z AUTO VRB03KT 10SM CLR 03/M03 A3015 RMK AO2 SLP186 T00281028
KROW 270851Z AUTO 00000KT 10SM CLR 03/M03 A3018 RMK AO2 SLP194 T00331028 56008
KROW 270751Z AUTO 11003KT 10SM CLR 03/M03 A3019 RMK AO2 SLP197 T00331033
KROW 270651Z AUTO 23003KT 10SM CLR 04/M03 A3019 RMK AO2 SLP198 T00441033 401830033
KROW 270551Z AUTO 22007KT 10SM CLR 06/M04 A3021 RMK AO2 SLP205 T00561039 10172 20056 58002
KROW 270451Z AUTO 21007KT 10SM CLR 08/M04 A3022 RMK AO2 SLP208 T00781039
KROW 270351Z AUTO 19008KT 10SM CLR 09/M05 A3022 RMK AO2 SLP210 T00891050
KROW 270251Z AUTO 19009KT 10SM CLR 09/M05 A3021 RMK AO2 SLP210 T00891050 53009
KROW 270151Z 16008KT 10SM CLR 13/M06 A3020 RMK AO2 SLP203 T01281061
KROW 270051Z 13011KT 10SM CLR 16/M06 A3019 RMK AO2 SLP197 T01561056
KROW 262351Z 14008KT 10SM CLR 17/M06 A3018 RMK AO2 SLP191 T01721061 10183 20122 56018
KROW 262251Z 00000KT 10SM CLR 18/M08 A3019 RMK AO2 SLP194 T01781078
KROW 262151Z 23005KT 10SM CLR 17/M08 A3021 RMK AO2 SLP200 T01671078
KROW 262051Z 24003KT 10SM CLR 16/M06 A3024 RMK AO2 SLP212 T01611061 58033
KROW 261951Z VRB04KT 10SM CLR 15/M05 A3029 RMK AO2 SLP230 T01501050
KROW 261851Z VRB04KT 10SM CLR 15/M05 A3032 RMK AO2 SLP240 T01501050
KROW 261751Z VRB03KT 10SM CLR 13/M03 A3035 RMK AO2 SLP251 T01281033 10128 20033 58010
KROW 261651Z VRB03KT 10SM CLR 11/M03 A3036 RMK AO2 SLP259 T01061028
KROW 261551Z 36006KT 10SM CLR 09/M02 A3037 RMK AO2 SLP262 T00891017
KROW 261451Z 04007KT 10SM CLR 08/M01 A3038 RMK AO2 SLP264 T00781011 51017
KROW 261351Z 32005KT 10SM CLR 05/M01 A3038 RMK AO2 SLP260 T00501006
KROW 261251Z 33003KT 10SM CLR 04/M01 A3035 RMK AO2 SLP243 T00391011
KROW 271120Z 2712/2812 VRB06KT P6SM FEW250 
     FM272100 15006KT P6SM SCT250 
     FM280200 24005KT P6SM SCT250 
     FM281100 33006KT P6SM SKC